Time;durP1;ratioP1;P1;durP2;ratioP2;P2;SDS_P1;SDS_P2;PMS_P1;PMS_P2;Temp;Humidity;BMP_temperature;BMP_pressure;BME280_temperature;BME280_humidity;BME280_pressure;Samples;Min_cycle;Max_cycle;Signal;HPM_P1;HPM_P2
2022/12/19 00:01:17;;;;;;;74.22;24.20;;;;;;;;;;6105610;19;20046;-69
2022/12/19 00:03:25;;;;;;;82.82;26.60;;;;;;;;;;6108374;19;20082;-69
2022/12/19 00:05:30;;;;;;;66.18;24.70;;;;;;;;;;6109439;19;20018;-69
2022/12/19 00:07:35;;;;;;;64.15;24.17;;;;;;;;;;6110798;19;20037;-69
2022/12/19 00:09:40;;;;;;;68.93;27.55;;;;;;;;;;6107654;19;20023;-69
2022/12/19 00:11:45;;;;;;;48.55;19.25;;;;;;;;;;6108023;19;20082;-69
2022/12/19 00:13:50;;;;;;;57.15;24.88;;;;;;;;;;6107789;19;20010;-69
2022/12/19 00:15:54;;;;;;;59.30;22.10;;;;;;;;;;6107866;19;20007;-69
2022/12/19 00:17:59;;;;;;;65.00;24.50;;;;;;;;;;6107958;19;20052;-69
2022/12/19 00:20:08;;;;;;;59.22;24.65;;;;;;;;;;6109305;19;20078;-69
2022/12/19 00:22:14;;;;;;;57.80;21.98;;;;;;;;;;6108833;19;20017;-69
2022/12/19 00:24:19;;;;;;;54.38;21.70;;;;;;;;;;6108893;19;20006;-69
2022/12/19 00:26:26;;;;;;;57.40;22.35;;;;;;;;;;6108914;19;20738;-70
2022/12/19 00:28:31;;;;;;;59.05;24.77;;;;;;;;;;6108504;19;20010;-69
2022/12/19 00:30:36;;;;;;;69.22;23.05;;;;;;;;;;6105166;19;20010;-69
2022/12/19 00:32:42;;;;;;;56.60;24.13;;;;;;;;;;6108724;19;20042;-69
2022/12/19 00:34:47;;;;;;;49.85;21.80;;;;;;;;;;6106694;19;20070;-69
2022/12/19 00:36:54;;;;;;;44.03;22.40;;;;;;;;;;6105259;19;20011;-69
2022/12/19 00:39:00;;;;;;;55.75;22.60;;;;;;;;;;6109184;19;20092;-69
2022/12/19 00:41:12;;;;;;;53.35;23.40;;;;;;;;;;6107666;19;20030;-69
2022/12/19 00:43:16;;;;;;;48.05;20.33;;;;;;;;;;6108658;19;20510;-69
2022/12/19 00:45:21;;;;;;;51.45;22.40;;;;;;;;;;6106379;19;20006;-70
2022/12/19 00:47:26;;;;;;;58.08;21.67;;;;;;;;;;6108667;19;20018;-71
2022/12/19 00:49:31;;;;;;;51.67;19.98;;;;;;;;;;6106687;19;20011;-70
2022/12/19 00:51:38;;;;;;;45.95;18.67;;;;;;;;;;6106327;19;20496;-70
2022/12/19 00:53:46;;;;;;;43.83;19.60;;;;;;;;;;6104885;19;20006;-70
2022/12/19 00:55:51;;;;;;;43.20;20.40;;;;;;;;;;6106360;19;20011;-70
2022/12/19 00:57:56;;;;;;;43.15;18.13;;;;;;;;;;6107306;19;20017;-70
2022/12/19 01:00:04;;;;;;;41.50;18.83;;;;;;;;;;6107010;19;20045;-70
2022/12/19 01:02:09;;;;;;;45.05;19.38;;;;;;;;;;6083730;19;20518;-70
2022/12/19 01:04:15;;;;;;;39.40;18.00;;;;;;;;;;6105420;19;20074;-70
2022/12/19 01:06:32;;;;;;;50.47;20.10;;;;;;;;;;6105570;19;20546;-70
2022/12/19 01:08:38;;;;;;;42.20;17.92;;;;;;;;;;6105297;19;20007;-70
2022/12/19 01:10:50;;;;;;;45.83;20.25;;;;;;;;;;6106400;19;20010;-70
2022/12/19 01:12:52;;;;;;;54.57;22.33;;;;;;;;;;6104219;19;20027;-70
2022/12/19 01:14:58;;;;;;;43.90;17.83;;;;;;;;;;6106158;19;20085;-70
2022/12/19 01:17:08;;;;;;;40.78;18.48;;;;;;;;;;6104285;19;20549;-70
2022/12/19 01:19:13;;;;;;;44.90;19.55;;;;;;;;;;6103768;19;20072;-71
2022/12/19 01:21:18;;;;;;;47.92;19.25;;;;;;;;;;6103164;19;20035;-70
2022/12/19 01:23:22;;;;;;;50.22;21.85;;;;;;;;;;6104210;19;20010;-70
2022/12/19 01:25:27;;;;;;;41.80;17.02;;;;;;;;;;6102751;19;20073;-71
2022/12/19 01:27:34;;;;;;;43.67;19.33;;;;;;;;;;6106054;19;20387;-70
2022/12/19 01:29:39;;;;;;;44.17;19.23;;;;;;;;;;6103790;19;20031;-70
2022/12/19 01:31:56;;;;;;;41.97;18.65;;;;;;;;;;6104902;19;20010;-70
2022/12/19 01:34:01;;;;;;;47.75;21.25;;;;;;;;;;6106044;19;20070;-71
2022/12/19 01:36:07;;;;;;;42.65;17.55;;;;;;;;;;6107551;19;20003;-70
2022/12/19 01:38:14;;;;;;;46.90;20.85;;;;;;;;;;6104215;19;20077;-70
2022/12/19 01:40:19;;;;;;;41.33;17.65;;;;;;;;;;6105976;19;20474;-71
2022/12/19 01:42:24;;;;;;;43.67;21.52;;;;;;;;;;6106617;19;20014;-71
2022/12/19 01:44:33;;;;;;;39.00;17.05;;;;;;;;;;6104512;19;20078;-71
2022/12/19 01:46:40;;;;;;;37.38;18.85;;;;;;;;;;6102868;19;20696;-71
2022/12/19 01:48:45;;;;;;;42.25;21.20;;;;;;;;;;6105448;19;20143;-71
2022/12/19 01:50:58;;;;;;;47.08;21.25;;;;;;;;;;6105094;19;20090;-71
2022/12/19 01:53:08;;;;;;;50.83;20.33;;;;;;;;;;6101205;19;20097;-71
2022/12/19 01:55:13;;;;;;;42.83;19.23;;;;;;;;;;6102551;19;20015;-70
2022/12/19 01:57:19;;;;;;;43.60;18.23;;;;;;;;;;6103521;19;20017;-71
2022/12/19 01:59:26;;;;;;;42.63;17.52;;;;;;;;;;6100296;19;20003;-70
2022/12/19 02:01:35;;;;;;;40.85;18.95;;;;;;;;;;6099315;19;20022;-70
2022/12/19 02:03:56;;;;;;;45.35;20.13;;;;;;;;;;6103343;19;20014;-70
2022/12/19 02:06:01;;;;;;;49.45;19.63;;;;;;;;;;6099590;19;20015;-70
2022/12/19 02:08:07;;;;;;;51.20;21.77;;;;;;;;;;6101662;19;20546;-71
2022/12/19 02:10:12;;;;;;;44.85;18.65;;;;;;;;;;6101673;19;20436;-72
2022/12/19 02:12:17;;;;;;;35.63;15.85;;;;;;;;;;6100736;19;20014;-70
2022/12/19 02:14:24;;;;;;;44.53;17.98;;;;;;;;;;6100866;19;20030;-68
2022/12/19 02:16:40;;;;;;;46.90;20.45;;;;;;;;;;6102895;19;20274;-68
2022/12/19 02:18:50;;;;;;;51.60;20.10;;;;;;;;;;6102685;19;20041;-68
2022/12/19 02:21:27;;;;;;;41.40;19.75;;;;;;;;;;6097745;19;20415;-70
2022/12/19 02:24:05;;;;;;;40.40;16.73;;;;;;;;;;6102277;19;20020;-70
2022/12/19 02:26:26;;;;;;;42.08;18.38;;;;;;;;;;6105123;19;20019;-70
2022/12/19 02:29:00;;;;;;;41.97;18.42;;;;;;;;;;6106453;19;20014;-71
2022/12/19 02:31:13;;;;;;;47.55;19.45;;;;;;;;;;6102260;19;20033;-71
2022/12/19 02:33:28;;;;;;;35.85;19.40;;;;;;;;;;6105460;19;20522;-71
2022/12/19 02:35:35;;;;;;;41.42;17.95;;;;;;;;;;6106063;19;20010;-70
2022/12/19 02:37:45;;;;;;;36.25;17.55;;;;;;;;;;6104716;19;20010;-71
2022/12/19 02:39:53;;;;;;;40.03;17.52;;;;;;;;;;6105045;19;20466;-72
2022/12/19 02:42:00;;;;;;;33.63;16.35;;;;;;;;;;6104021;19;20006;-71
2022/12/19 02:44:05;;;;;;;39.28;18.05;;;;;;;;;;6103244;19;20489;-71
2022/12/19 02:46:13;;;;;;;39.38;17.40;;;;;;;;;;6105041;19;20010;-72
2022/12/19 02:48:18;;;;;;;35.35;18.70;;;;;;;;;;6104878;19;20013;-72
2022/12/19 02:50:23;;;;;;;41.72;16.67;;;;;;;;;;6105400;19;20014;-70
2022/12/19 02:52:58;;;;;;;40.22;16.52;;;;;;;;;;6103098;19;20534;-71
2022/12/19 02:55:06;;;;;;;33.55;15.77;;;;;;;;;;6098449;19;20606;-71
2022/12/19 02:57:15;;;;;;;35.63;14.95;;;;;;;;;;6102677;19;20329;-71
2022/12/19 02:59:36;;;;;;;36.15;17.33;;;;;;;;;;6104758;19;20007;-71
2022/12/19 03:01:49;;;;;;;29.45;13.52;;;;;;;;;;6102559;19;20777;-70
2022/12/19 03:04:01;;;;;;;34.78;15.77;;;;;;;;;;6105645;19;20046;-71
2022/12/19 03:06:10;;;;;;;36.35;14.90;;;;;;;;;;6103231;19;20014;-70
2022/12/19 03:08:23;;;;;;;33.03;15.10;;;;;;;;;;6102931;19;20507;-69
2022/12/19 03:10:33;;;;;;;24.88;11.45;;;;;;;;;;6101930;19;20354;-69
2022/12/19 03:12:40;;;;;;;34.17;16.90;;;;;;;;;;6102587;19;20026;-68
2022/12/19 03:14:46;;;;;;;28.95;14.57;;;;;;;;;;6102602;19;20481;-68
2022/12/19 03:16:54;;;;;;;31.13;14.13;;;;;;;;;;6100436;19;20094;-67
2022/12/19 03:18:59;;;;;;;28.70;15.52;;;;;;;;;;6107380;19;20550;-70
2022/12/19 03:21:08;;;;;;;26.40;13.45;;;;;;;;;;6107433;19;20037;-68
2022/12/19 03:23:13;;;;;;;31.83;14.48;;;;;;;;;;6109684;19;20011;-70
2022/12/19 03:25:18;;;;;;;30.42;14.02;;;;;;;;;;6108719;19;20055;-69
2022/12/19 03:27:27;;;;;;;25.42;12.15;;;;;;;;;;6109065;19;20007;-68
2022/12/19 03:29:36;;;;;;;28.98;14.65;;;;;;;;;;6109015;19;20473;-70
2022/12/19 03:31:41;;;;;;;23.58;13.00;;;;;;;;;;6105160;19;20011;-70
2022/12/19 03:33:53;;;;;;;30.27;14.52;;;;;;;;;;6110267;19;20014;-70
2022/12/19 03:35:59;;;;;;;28.60;14.45;;;;;;;;;;6106194;19;20792;-70
2022/12/19 03:38:05;;;;;;;29.50;14.45;;;;;;;;;;6108183;19;20011;-70
2022/12/19 03:40:13;;;;;;;30.45;14.75;;;;;;;;;;6109519;19;20502;-71
2022/12/19 03:44:40;;;;;;;24.40;13.68;;;;;;;;;;6108120;19;20010;-69
2022/12/19 03:46:50;;;;;;;24.55;13.10;;;;;;;;;;6107696;19;20045;-69
2022/12/19 03:48:58;;;;;;;24.17;13.07;;;;;;;;;;6107519;19;20010;-68
2022/12/19 03:51:07;;;;;;;26.00;13.32;;;;;;;;;;6107941;19;20318;-68
2022/12/19 03:53:21;;;;;;;27.02;14.85;;;;;;;;;;6107474;19;20044;-70
2022/12/19 03:55:31;;;;;;;23.65;11.75;;;;;;;;;;6106570;19;20015;-68
2022/12/19 03:57:41;;;;;;;22.00;13.05;;;;;;;;;;6110390;19;20007;-69
2022/12/19 03:59:47;;;;;;;26.95;12.95;;;;;;;;;;6109021;19;20549;-71
2022/12/19 04:01:54;;;;;;;22.33;12.52;;;;;;;;;;6107052;19;20028;-68
2022/12/19 04:04:02;;;;;;;23.80;13.48;;;;;;;;;;6109845;19;20483;-68
2022/12/19 04:06:07;;;;;;;28.33;14.80;;;;;;;;;;6109620;19;20015;-68
2022/12/19 04:08:12;;;;;;;26.30;14.07;;;;;;;;;;6110256;19;20090;-68
2022/12/19 04:10:20;;;;;;;25.40;14.30;;;;;;;;;;6109537;19;20037;-69
2022/12/19 04:12:29;;;;;;;28.45;15.25;;;;;;;;;;6107725;19;20007;-68
2022/12/19 04:14:36;;;;;;;22.13;12.35;;;;;;;;;;6110555;19;20305;-68
2022/12/19 04:16:45;;;;;;;26.38;12.68;;;;;;;;;;6110024;19;20010;-68
2022/12/19 04:18:54;;;;;;;22.88;13.07;;;;;;;;;;6107907;19;20554;-68
2022/12/19 04:21:08;;;;;;;25.95;12.52;;;;;;;;;;6107129;19;20568;-68
2022/12/19 04:23:16;;;;;;;27.20;13.88;;;;;;;;;;6106424;19;20010;-69
2022/12/19 04:25:24;;;;;;;28.25;13.93;;;;;;;;;;6107228;19;20011;-68
2022/12/19 04:27:36;;;;;;;23.80;13.20;;;;;;;;;;6108735;19;20022;-68
2022/12/19 04:29:41;;;;;;;24.08;11.88;;;;;;;;;;6105131;19;20042;-68
2022/12/19 04:31:46;;;;;;;27.52;13.73;;;;;;;;;;6108198;19;20011;-68
2022/12/19 04:33:51;;;;;;;23.08;12.95;;;;;;;;;;6108172;19;20014;-68
2022/12/19 04:35:56;;;;;;;23.45;11.70;;;;;;;;;;6107549;19;20482;-68
2022/12/19 04:38:03;;;;;;;17.75;9.90;;;;;;;;;;6107754;19;20098;-68
2022/12/19 04:40:11;;;;;;;18.50;10.35;;;;;;;;;;6107402;19;20038;-68
2022/12/19 04:42:16;;;;;;;22.13;10.98;;;;;;;;;;6107152;19;20538;-68
2022/12/19 04:44:20;;;;;;;20.58;11.07;;;;;;;;;;6108166;19;20038;-68
2022/12/19 04:46:25;;;;;;;20.77;11.50;;;;;;;;;;6108138;19;20006;-68
2022/12/19 04:48:30;;;;;;;20.23;10.60;;;;;;;;;;6108777;19;20087;-68
2022/12/19 04:50:34;;;;;;;20.52;11.05;;;;;;;;;;6107049;19;20003;-68
2022/12/19 04:52:40;;;;;;;25.42;13.20;;;;;;;;;;6105702;19;20007;-68
2022/12/19 04:54:47;;;;;;;26.15;12.00;;;;;;;;;;6105832;19;20006;-68
2022/12/19 04:56:52;;;;;;;22.85;11.77;;;;;;;;;;6105549;19;20020;-69
2022/12/19 04:58:59;;;;;;;20.10;10.65;;;;;;;;;;6107769;19;20024;-68
2022/12/19 05:01:03;;;;;;;20.25;11.07;;;;;;;;;;6104129;19;20025;-68
2022/12/19 05:03:08;;;;;;;24.33;12.30;;;;;;;;;;6107002;19;20529;-68
2022/12/19 05:05:14;;;;;;;21.25;11.10;;;;;;;;;;6108577;19;20039;-68
2022/12/19 05:07:19;;;;;;;22.75;12.07;;;;;;;;;;6105570;19;20034;-68
2022/12/19 05:09:23;;;;;;;21.83;11.20;;;;;;;;;;6105230;19;20014;-68
2022/12/19 05:11:31;;;;;;;25.30;12.15;;;;;;;;;;6105654;19;20020;-68
2022/12/19 05:13:35;;;;;;;22.10;11.88;;;;;;;;;;6107072;19;20018;-68
2022/12/19 05:15:40;;;;;;;22.90;11.18;;;;;;;;;;6105788;19;20037;-69
2022/12/19 05:17:45;;;;;;;19.52;10.95;;;;;;;;;;6107767;19;20010;-68
2022/12/19 05:19:49;;;;;;;18.20;9.88;;;;;;;;;;6106859;19;20007;-68
2022/12/19 05:21:54;;;;;;;21.48;11.05;;;;;;;;;;6107621;19;20017;-68
2022/12/19 05:23:59;;;;;;;21.67;11.18;;;;;;;;;;6106275;19;20015;-68
2022/12/19 05:26:05;;;;;;;22.83;11.38;;;;;;;;;;6106116;19;20015;-68
2022/12/19 05:28:13;;;;;;;24.77;11.50;;;;;;;;;;6106036;19;20011;-70
2022/12/19 05:30:18;;;;;;;27.00;11.82;;;;;;;;;;6107506;19;20360;-68
2022/12/19 05:32:23;;;;;;;16.63;9.52;;;;;;;;;;6107189;19;20074;-68
2022/12/19 05:34:28;;;;;;;21.73;10.65;;;;;;;;;;6107192;19;20041;-68
2022/12/19 05:36:33;;;;;;;18.88;11.77;;;;;;;;;;6106057;19;20689;-68
2022/12/19 05:38:38;;;;;;;21.27;11.05;;;;;;;;;;6107105;19;20380;-68
2022/12/19 05:40:43;;;;;;;20.83;11.40;;;;;;;;;;6106995;19;20748;-68
2022/12/19 05:42:48;;;;;;;21.95;11.38;;;;;;;;;;6107704;19;20007;-68
2022/12/19 05:44:55;;;;;;;22.17;11.85;;;;;;;;;;6102764;19;20103;-69
2022/12/19 05:47:00;;;;;;;20.77;11.38;;;;;;;;;;6106190;19;20010;-68
2022/12/19 05:49:05;;;;;;;23.45;11.98;;;;;;;;;;6106931;19;20473;-69
2022/12/19 05:51:10;;;;;;;19.85;10.90;;;;;;;;;;6105978;19;20010;-68
2022/12/19 05:53:14;;;;;;;23.95;13.30;;;;;;;;;;6102942;19;20074;-68
2022/12/19 05:55:19;;;;;;;18.95;9.80;;;;;;;;;;6105841;19;20030;-70
2022/12/19 05:57:24;;;;;;;24.88;12.57;;;;;;;;;;6104828;19;20006;-69
2022/12/19 05:59:29;;;;;;;24.45;11.98;;;;;;;;;;6105175;19;20474;-68
2022/12/19 06:01:36;;;;;;;22.35;12.07;;;;;;;;;;6102935;19;20391;-69
2022/12/19 06:03:41;;;;;;;21.83;10.05;;;;;;;;;;6104533;19;20035;-69
2022/12/19 06:05:46;;;;;;;24.92;11.88;;;;;;;;;;6103396;19;20011;-69
2022/12/19 06:07:51;;;;;;;18.30;9.65;;;;;;;;;;6103141;19;20016;-69
2022/12/19 06:09:55;;;;;;;22.80;11.80;;;;;;;;;;6107749;19;20010;-68
2022/12/19 06:12:00;;;;;;;23.63;11.20;;;;;;;;;;6106004;19;20018;-68
2022/12/19 06:14:05;;;;;;;20.77;12.43;;;;;;;;;;6103572;19;20033;-69
2022/12/19 06:16:12;;;;;;;22.10;11.73;;;;;;;;;;6106032;19;20010;-68
2022/12/19 06:18:20;;;;;;;19.80;9.70;;;;;;;;;;6105028;19;20019;-69
2022/12/19 06:20:25;;;;;;;22.90;11.77;;;;;;;;;;6105374;19;20361;-69
2022/12/19 06:22:29;;;;;;;24.83;11.68;;;;;;;;;;6105088;19;20054;-69
2022/12/19 06:24:34;;;;;;;26.98;12.18;;;;;;;;;;6106050;19;20015;-69
2022/12/19 06:26:39;;;;;;;22.90;11.35;;;;;;;;;;6105531;19;20010;-69
2022/12/19 06:28:44;;;;;;;23.38;12.82;;;;;;;;;;6105292;19;20011;-70
2022/12/19 06:30:48;;;;;;;22.25;11.60;;;;;;;;;;6106686;19;20026;-69
2022/12/19 06:32:53;;;;;;;21.23;11.63;;;;;;;;;;6102113;19;20018;-70
2022/12/19 06:35:01;;;;;;;22.45;11.15;;;;;;;;;;6106212;19;20066;-70
2022/12/19 06:37:08;;;;;;;26.83;12.32;;;;;;;;;;6105325;19;20017;-70
2022/12/19 06:39:14;;;;;;;23.88;11.35;;;;;;;;;;6105187;19;20011;-70
2022/12/19 06:43:37;;;;;;;21.75;12.07;;;;;;;;;;6103902;19;20021;-70
2022/12/19 06:45:42;;;;;;;20.95;9.60;;;;;;;;;;6105529;19;20664;-69
2022/12/19 06:47:47;;;;;;;19.83;10.73;;;;;;;;;;6105107;19;20014;-69
2022/12/19 06:49:52;;;;;;;16.52;9.23;;;;;;;;;;6105277;19;20443;-70
2022/12/19 06:51:59;;;;;;;20.75;10.45;;;;;;;;;;6104296;19;20003;-70
2022/12/19 06:54:11;;;;;;;19.42;9.60;;;;;;;;;;6104230;19;20316;-70
2022/12/19 06:56:17;;;;;;;17.48;10.00;;;;;;;;;;6103214;19;20478;-70
2022/12/19 06:58:22;;;;;;;19.40;9.73;;;;;;;;;;6103021;19;20035;-70
2022/12/19 07:00:28;;;;;;;20.23;10.20;;;;;;;;;;6100241;19;20016;-70
2022/12/19 07:02:34;;;;;;;18.88;9.70;;;;;;;;;;6103642;19;20021;-70
2022/12/19 07:04:41;;;;;;;16.70;9.10;;;;;;;;;;6102673;19;20314;-70
2022/12/19 07:06:46;;;;;;;15.88;8.65;;;;;;;;;;6104576;19;20418;-71
2022/12/19 07:08:55;;;;;;;20.52;9.07;;;;;;;;;;6101469;19;20027;-69
2022/12/19 07:11:00;;;;;;;20.25;10.15;;;;;;;;;;6104365;19;20101;-70
2022/12/19 07:13:05;;;;;;;14.02;8.80;;;;;;;;;;6104212;19;20021;-70
2022/12/19 07:15:11;;;;;;;16.17;8.35;;;;;;;;;;6100210;19;20003;-70
2022/12/19 07:17:15;;;;;;;15.65;8.05;;;;;;;;;;6104439;19;20007;-69
2022/12/19 07:19:21;;;;;;;17.02;8.15;;;;;;;;;;6106231;19;20017;-69
2022/12/19 07:21:25;;;;;;;14.90;8.35;;;;;;;;;;6103781;19;20014;-69
2022/12/19 07:23:30;;;;;;;14.68;7.85;;;;;;;;;;6104423;19;20073;-69
2022/12/19 07:25:38;;;;;;;17.95;8.30;;;;;;;;;;6105754;19;20014;-69
2022/12/19 07:27:44;;;;;;;14.90;8.25;;;;;;;;;;6105052;19;20011;-70
2022/12/19 07:29:48;;;;;;;18.85;8.90;;;;;;;;;;6104515;19;20010;-69
2022/12/19 07:31:53;;;;;;;14.32;7.93;;;;;;;;;;6103422;19;20014;-69
2022/12/19 07:33:58;;;;;;;18.08;8.80;;;;;;;;;;6103798;19;20014;-69
2022/12/19 07:36:03;;;;;;;14.10;7.13;;;;;;;;;;6103645;19;20160;-68
2022/12/19 07:38:09;;;;;;;13.85;8.90;;;;;;;;;;6102562;19;20038;-68
2022/12/19 07:40:15;;;;;;;17.85;8.05;;;;;;;;;;6099307;19;20569;-68
2022/12/19 07:42:23;;;;;;;18.67;9.07;;;;;;;;;;6101954;19;20019;-68
2022/12/19 07:44:35;;;;;;;17.65;8.80;;;;;;;;;;6103816;19;21229;-68
2022/12/19 07:46:40;;;;;;;18.98;8.05;;;;;;;;;;6102302;19;20625;-68
2022/12/19 07:48:44;;;;;;;18.60;8.93;;;;;;;;;;6100882;19;20573;-68
2022/12/19 07:50:49;;;;;;;15.65;7.90;;;;;;;;;;6099357;19;20042;-68
2022/12/19 07:52:54;;;;;;;15.50;8.30;;;;;;;;;;6092277;19;20025;-68
2022/12/19 07:54:59;;;;;;;15.70;7.88;;;;;;;;;;6098195;19;20014;-68
2022/12/19 07:57:04;;;;;;;18.92;9.00;;;;;;;;;;6096324;19;20031;-69
2022/12/19 07:59:11;;;;;;;19.05;8.27;;;;;;;;;;6097613;19;20015;-69
2022/12/19 08:01:21;;;;;;;16.42;7.88;;;;;;;;;;6096901;19;20030;-69
2022/12/19 08:03:27;;;;;;;17.95;7.95;;;;;;;;;;6096307;19;20111;-69
2022/12/19 08:05:34;;;;;;;13.95;7.85;;;;;;;;;;6101514;19;20021;-69
2022/12/19 08:07:40;;;;;;;16.70;8.45;;;;;;;;;;6104246;19;20017;-69
2022/12/19 08:09:45;;;;;;;14.75;8.05;;;;;;;;;;6103886;19;20373;-69
2022/12/19 08:11:50;;;;;;;15.93;7.97;;;;;;;;;;6101343;19;20341;-68
2022/12/19 08:13:55;;;;;;;15.95;8.77;;;;;;;;;;6102344;19;20357;-69
2022/12/19 08:16:04;;;;;;;16.13;8.90;;;;;;;;;;6103338;19;20014;-69
2022/12/19 08:18:08;;;;;;;14.98;7.32;;;;;;;;;;6105447;19;20015;-69
2022/12/19 08:20:13;;;;;;;15.57;8.27;;;;;;;;;;6104378;19;20038;-69
2022/12/19 08:22:18;;;;;;;17.25;8.27;;;;;;;;;;6103777;19;20014;-70
2022/12/19 08:24:23;;;;;;;17.73;9.20;;;;;;;;;;6101953;19;20143;-70
2022/12/19 08:26:28;;;;;;;15.55;8.98;;;;;;;;;;6105869;19;20018;-70
2022/12/19 08:28:41;;;;;;;15.70;8.65;;;;;;;;;;6106651;19;20002;-70
2022/12/19 08:30:45;;;;;;;14.32;8.20;;;;;;;;;;6108428;19;20612;-71
2022/12/19 08:32:53;;;;;;;15.00;8.45;;;;;;;;;;6107703;19;20021;-71
2022/12/19 08:34:57;;;;;;;15.23;8.15;;;;;;;;;;6105958;19;20023;-70
2022/12/19 08:37:02;;;;;;;17.15;8.60;;;;;;;;;;6109914;19;20026;-70
2022/12/19 08:39:07;;;;;;;16.83;8.05;;;;;;;;;;6106913;19;20014;-70
2022/12/19 08:41:12;;;;;;;14.52;8.60;;;;;;;;;;6106894;19;20142;-68
2022/12/19 08:43:17;;;;;;;16.58;8.85;;;;;;;;;;6107804;19;20003;-68
2022/12/19 08:45:22;;;;;;;15.88;8.73;;;;;;;;;;6104763;19;20094;-69
2022/12/19 08:47:26;;;;;;;16.75;8.05;;;;;;;;;;6104235;19;20562;-68
2022/12/19 08:49:34;;;;;;;16.95;8.57;;;;;;;;;;6106068;19;20038;-69
2022/12/19 08:51:38;;;;;;;16.17;8.23;;;;;;;;;;6106046;19;20014;-70
2022/12/19 08:53:45;;;;;;;14.65;7.68;;;;;;;;;;6101729;19;20041;-69
2022/12/19 08:55:50;;;;;;;14.40;8.68;;;;;;;;;;6106501;19;20022;-68
2022/12/19 08:57:55;;;;;;;13.50;7.63;;;;;;;;;;6106022;19;20045;-68
2022/12/19 09:00:00;;;;;;;14.13;8.35;;;;;;;;;;6105375;19;20010;-69
2022/12/19 09:02:05;;;;;;;15.32;8.50;;;;;;;;;;6102214;19;20014;-68
2022/12/19 09:04:10;;;;;;;14.63;8.43;;;;;;;;;;6103571;19;20017;-69
2022/12/19 09:06:38;;;;;;;18.00;9.05;;;;;;;;;;6103382;19;20014;-69
2022/12/19 09:08:43;;;;;;;13.48;7.35;;;;;;;;;;6099674;19;20473;-69
2022/12/19 09:10:48;;;;;;;15.50;8.27;;;;;;;;;;6103063;19;20021;-69
2022/12/19 09:12:53;;;;;;;15.85;8.68;;;;;;;;;;6099029;19;20034;-68
2022/12/19 09:15:01;;;;;;;15.63;7.82;;;;;;;;;;6102920;19;20010;-69
2022/12/19 09:17:06;;;;;;;14.60;7.88;;;;;;;;;;6106516;19;20433;-69
2022/12/19 09:19:14;;;;;;;17.02;7.72;;;;;;;;;;6105821;19;21259;-69
2022/12/19 09:21:19;;;;;;;17.23;8.73;;;;;;;;;;6105895;19;20474;-69
2022/12/19 09:23:28;;;;;;;16.58;8.35;;;;;;;;;;6106256;19;20018;-68
2022/12/19 09:25:33;;;;;;;15.10;7.32;;;;;;;;;;6099934;19;20371;-69
2022/12/19 09:27:38;;;;;;;15.95;7.43;;;;;;;;;;6104558;19;20530;-69
2022/12/19 09:30:03;;;;;;;13.50;7.50;;;;;;;;;;6105582;19;20015;-70
2022/12/19 09:32:08;;;;;;;17.00;8.27;;;;;;;;;;6103404;19;20017;-68
2022/12/19 09:34:13;;;;;;;15.02;8.07;;;;;;;;;;6103904;19;20382;-72
2022/12/19 09:36:21;;;;;;;14.45;8.23;;;;;;;;;;6102893;19;20024;-71
2022/12/19 09:38:30;;;;;;;16.70;7.55;;;;;;;;;;6103946;19;20026;-69
2022/12/19 09:40:54;;;;;;;13.90;7.95;;;;;;;;;;6103697;19;20479;-70
2022/12/19 09:43:05;;;;;;;15.00;6.95;;;;;;;;;;6101019;19;20014;-70
2022/12/19 09:45:32;;;;;;;13.23;7.97;;;;;;;;;;6104900;19;20018;-69
2022/12/19 09:47:40;;;;;;;13.48;7.10;;;;;;;;;;6105301;19;20018;-70
2022/12/19 09:49:47;;;;;;;14.00;7.68;;;;;;;;;;6105257;19;20017;-70
2022/12/19 09:51:58;;;;;;;16.55;6.72;;;;;;;;;;6104588;19;20050;-70
2022/12/19 09:54:10;;;;;;;14.18;7.32;;;;;;;;;;6102212;19;20216;-70
2022/12/19 09:56:17;;;;;;;10.77;6.90;;;;;;;;;;6105849;19;20031;-70
2022/12/19 09:58:29;;;;;;;14.20;7.68;;;;;;;;;;6104575;19;20495;-70
2022/12/19 10:00:36;;;;;;;14.32;7.55;;;;;;;;;;6104351;19;20113;-70
2022/12/19 10:02:46;;;;;;;13.43;7.47;;;;;;;;;;6105722;19;20018;-70
2022/12/19 10:04:53;;;;;;;14.80;6.93;;;;;;;;;;6105210;19;20018;-70
2022/12/19 10:07:18;;;;;;;12.30;6.50;;;;;;;;;;6101115;19;20022;-69
2022/12/19 10:09:46;;;;;;;17.05;8.55;;;;;;;;;;6101378;19;20471;-71
2022/12/19 10:12:23;;;;;;;15.45;6.80;;;;;;;;;;6102011;19;20030;-70
2022/12/19 10:14:57;;;;;;;11.98;6.20;;;;;;;;;;6104047;19;20014;-70
2022/12/19 10:17:08;;;;;;;11.13;5.95;;;;;;;;;;6099470;19;20011;-69
2022/12/19 10:19:34;;;;;;;11.73;6.55;;;;;;;;;;6104350;19;20072;-69
2022/12/19 10:21:43;;;;;;;13.75;6.32;;;;;;;;;;6104645;19;20021;-69
2022/12/19 10:24:27;;;;;;;16.23;7.28;;;;;;;;;;6103581;19;20015;-69
2022/12/19 10:26:46;;;;;;;15.25;7.25;;;;;;;;;;6102647;19;20017;-69
2022/12/19 10:29:03;;;;;;;10.63;6.13;;;;;;;;;;6102703;19;20042;-69
2022/12/19 10:31:15;;;;;;;12.98;6.78;;;;;;;;;;6100113;19;20133;-69
2022/12/19 10:33:28;;;;;;;13.75;7.40;;;;;;;;;;6103515;19;20019;-69
2022/12/19 10:35:37;;;;;;;12.93;6.85;;;;;;;;;;6104075;19;20383;-69
2022/12/19 10:37:47;;;;;;;13.80;6.65;;;;;;;;;;6106123;19;20530;-70
2022/12/19 10:40:01;;;;;;;13.30;6.63;;;;;;;;;;6104512;19;20514;-70
2022/12/19 10:42:14;;;;;;;12.77;6.30;;;;;;;;;;6103186;19;20739;-70
2022/12/19 10:44:20;;;;;;;10.25;6.03;;;;;;;;;;6102341;19;20007;-70
2022/12/19 10:46:35;;;;;;;12.82;7.00;;;;;;;;;;6101466;19;20019;-70
2022/12/19 10:48:40;;;;;;;12.20;6.47;;;;;;;;;;6102562;19;20019;-70
2022/12/19 10:50:45;;;;;;;10.27;5.75;;;;;;;;;;6101016;19;20017;-69
2022/12/19 10:52:53;;;;;;;13.48;6.80;;;;;;;;;;6098612;19;20034;-70
2022/12/19 10:54:58;;;;;;;9.80;6.43;;;;;;;;;;6098056;19;20015;-70
2022/12/19 10:57:24;;;;;;;11.32;6.00;;;;;;;;;;6101974;19;20015;-69
2022/12/19 10:59:29;;;;;;;10.82;5.80;;;;;;;;;;6102043;19;20011;-70
2022/12/19 11:01:36;;;;;;;13.38;6.65;;;;;;;;;;6099301;19;20380;-69
2022/12/19 11:03:44;;;;;;;9.80;5.80;;;;;;;;;;6100200;19;20016;-69
2022/12/19 11:05:51;;;;;;;11.23;6.80;;;;;;;;;;6098105;19;20550;-69
2022/12/19 11:08:04;;;;;;;8.25;5.43;;;;;;;;;;6095659;19;20014;-69
2022/12/19 11:10:37;;;;;;;13.38;7.05;;;;;;;;;;6097960;19;20054;-69
2022/12/19 11:13:04;;;;;;;12.35;6.75;;;;;;;;;;6099461;19;20007;-70
2022/12/19 11:15:32;;;;;;;12.18;6.47;;;;;;;;;;6098875;19;20335;-70
2022/12/19 11:18:08;;;;;;;11.63;6.40;;;;;;;;;;6100574;19;20014;-71
2022/12/19 11:20:34;;;;;;;13.88;6.13;;;;;;;;;;6096407;19;20630;-70
2022/12/19 11:23:00;;;;;;;12.43;6.30;;;;;;;;;;6100449;19;20011;-68
2022/12/19 11:25:35;;;;;;;12.93;7.45;;;;;;;;;;6097550;19;20011;-69
2022/12/19 11:27:59;;;;;;;10.55;6.03;;;;;;;;;;6094360;19;20018;-69
2022/12/19 11:30:28;;;;;;;16.33;7.28;;;;;;;;;;6098109;19;20011;-68
2022/12/19 11:33:10;;;;;;;11.65;5.80;;;;;;;;;;6102153;19;20314;-68
2022/12/19 11:35:21;;;;;;;11.10;6.43;;;;;;;;;;6105982;19;20537;-71
2022/12/19 11:37:35;;;;;;;12.85;7.07;;;;;;;;;;6103450;19;20013;-69
2022/12/19 11:39:45;;;;;;;14.65;7.53;;;;;;;;;;6106473;19;20448;-69
2022/12/19 11:41:53;;;;;;;12.90;6.32;;;;;;;;;;6109883;19;20007;-69
2022/12/19 11:44:02;;;;;;;13.55;6.85;;;;;;;;;;6107946;19;20006;-69
2022/12/19 11:46:13;;;;;;;16.98;7.15;;;;;;;;;;6104156;19;20078;-69
2022/12/19 11:48:33;;;;;;;15.88;7.20;;;;;;;;;;6111086;19;20017;-69
2022/12/19 11:50:43;;;;;;;12.13;7.05;;;;;;;;;;6109548;19;20046;-69
2022/12/19 11:52:51;;;;;;;13.73;7.65;;;;;;;;;;6101312;19;20023;-70
2022/12/19 11:55:06;;;;;;;10.32;6.13;;;;;;;;;;6105970;19;20009;-70
2022/12/19 11:57:13;;;;;;;12.25;6.75;;;;;;;;;;6104350;19;20014;-70
2022/12/19 11:59:20;;;;;;;15.63;7.50;;;;;;;;;;6104671;19;20458;-70
2022/12/19 12:01:44;;;;;;;13.30;6.63;;;;;;;;;;6104232;19;20010;-70
2022/12/19 12:04:03;;;;;;;13.40;7.70;;;;;;;;;;6106777;19;20018;-70
2022/12/19 12:06:14;;;;;;;13.35;6.50;;;;;;;;;;6105718;19;20365;-70
2022/12/19 12:08:43;;;;;;;12.07;7.50;;;;;;;;;;6107541;19;20010;-70
2022/12/19 12:11:18;;;;;;;13.02;6.95;;;;;;;;;;6102945;19;21333;-71
2022/12/19 12:13:50;;;;;;;16.00;7.45;;;;;;;;;;6104806;19;20014;-71
2022/12/19 12:16:16;;;;;;;11.75;6.68;;;;;;;;;;6108584;19;20018;-69
2022/12/19 12:18:52;;;;;;;13.20;6.75;;;;;;;;;;6107038;19;20392;-70
2022/12/19 12:21:24;;;;;;;12.27;6.80;;;;;;;;;;6104062;19;20043;-71
2022/12/19 12:24:00;;;;;;;11.63;6.20;;;;;;;;;;6107669;19;20380;-70
2022/12/19 12:26:29;;;;;;;13.15;6.25;;;;;;;;;;6108261;19;20011;-70
2022/12/19 12:29:01;;;;;;;16.15;6.32;;;;;;;;;;6106081;19;20026;-68
2022/12/19 12:31:35;;;;;;;12.18;6.82;;;;;;;;;;6107597;19;20015;-69
2022/12/19 12:34:11;;;;;;;13.98;7.88;;;;;;;;;;6106168;19;20093;-69
2022/12/19 12:36:40;;;;;;;12.85;6.78;;;;;;;;;;6102515;19;20033;-71
2022/12/19 12:39:10;;;;;;;9.90;6.50;;;;;;;;;;6097936;19;20006;-71
2022/12/19 12:42:02;;;;;;;11.43;5.68;;;;;;;;;;6105856;19;20038;-69
2022/12/19 12:44:03;;;;;;;10.20;5.80;;;;;;;;;;6101132;19;20033;-71
2022/12/19 12:46:13;;;;;;;12.02;6.18;;;;;;;;;;6100457;19;20053;-70